Time;durP1;ratioP1;P1;durP2;ratioP2;P2;SDS_P1;SDS_P2;PMS_P1;PMS_P2;Temp;Humidity;BMP_temperature;BMP_pressure;BME280_temperature;BME280_humidity;BME280_pressure;Samples;Min_cycle;Max_cycle;Signal;HPM_P1;HPM_P2
2022/09/21 00:01:13;;;;;;;4.93;3.70;;;;;;;18.30;91.75;101639.81;5107640;28;20016;-83
2022/09/21 00:03:42;;;;;;;3.75;3.30;;;;;;;18.28;91.85;101636.44;5092024;28;20028;-84
2022/09/21 00:06:11;;;;;;;4.45;3.65;;;;;;;18.34;91.66;101641.25;5092586;28;20031;-83
2022/09/21 00:08:37;;;;;;;3.92;3.17;;;;;;;18.33;91.50;101644.91;5091927;28;20398;-83
2022/09/21 00:11:04;;;;;;;5.03;3.70;;;;;;;18.30;92.58;101634.50;5092250;28;20106;-83
2022/09/21 00:13:31;;;;;;;4.30;3.75;;;;;;;18.34;92.02;101635.94;5091976;28;20024;-83
2022/09/21 00:15:57;;;;;;;5.00;3.42;;;;;;;18.37;91.13;101639.19;5091991;28;20650;-83
2022/09/21 00:18:22;;;;;;;4.97;3.22;;;;;;;18.36;91.47;101642.81;5091861;28;20380;-83
2022/09/21 00:20:48;;;;;;;4.95;4.40;;;;;;;18.30;91.36;101642.47;5090414;28;20027;-84
2022/09/21 00:23:14;;;;;;;4.95;3.90;;;;;;;18.33;90.97;101645.75;5092035;28;20031;-83
2022/09/21 00:25:39;;;;;;;7.20;4.30;;;;;;;18.37;91.01;101639.19;5091744;28;20032;-84
2022/09/21 00:28:04;;;;;;;4.68;3.47;;;;;;;18.33;91.63;101644.91;5091961;28;20028;-84
2022/09/21 00:30:30;;;;;;;4.00;3.60;;;;;;;18.36;91.90;101644.63;5091730;28;20477;-83
2022/09/21 00:32:56;;;;;;;5.20;3.85;;;;;;;18.36;91.69;101647.28;5093563;28;20111;-84
2022/09/21 00:35:21;;;;;;;4.78;3.30;;;;;;;18.35;91.80;101643.81;5095783;28;20031;-84
2022/09/21 00:37:47;;;;;;;10.88;3.63;;;;;;;18.42;91.85;101650.31;5095674;28;20020;-83
2022/09/21 00:40:12;;;;;;;4.35;2.97;;;;;;;18.46;92.15;101640.25;5095724;28;20020;-84
2022/09/21 00:42:38;;;;;;;4.43;3.45;;;;;;;18.42;92.12;101638.81;5095496;28;20028;-83
2022/09/21 00:45:04;;;;;;;6.57;4.40;;;;;;;18.41;92.13;101643.28;5095452;28;20032;-83
2022/09/21 00:47:35;;;;;;;4.22;3.35;;;;;;;18.49;91.75;101640.00;5095781;28;20081;-84
2022/09/21 00:50:05;;;;;;;4.07;3.00;;;;;;;18.48;91.67;101648.13;5095828;28;20394;-83
2022/09/21 00:52:34;;;;;;;4.75;3.63;;;;;;;18.51;91.72;101647.88;5095734;28;20123;-83
2022/09/21 00:55:13;;;;;;;5.60;3.53;;;;;;;18.51;91.51;101653.19;5095488;28;20016;-84
2022/09/21 00:57:40;;;;;;;4.78;3.38;;;;;;;18.47;92.05;101641.97;5095262;28;20451;-83
2022/09/21 01:00:07;;;;;;;3.58;3.25;;;;;;;18.46;91.95;101645.56;5095392;28;20020;-84
2022/09/21 01:02:34;;;;;;;4.60;3.45;;;;;;;18.44;92.01;101642.19;5095235;28;20397;-83
2022/09/21 01:05:00;;;;;;;5.50;4.10;;;;;;;18.39;92.44;101641.75;5095041;28;20088;-83
2022/09/21 01:07:31;;;;;;;4.80;3.65;;;;;;;18.36;93.48;101648.13;5095202;28;20385;-84
2022/09/21 01:10:01;;;;;;;7.25;4.68;;;;;;;18.42;93.52;101644.13;5094803;28;20094;-83
2022/09/21 01:12:52;;;;;;;5.93;4.32;;;;;;;18.49;92.92;101639.19;5095001;28;20546;-83
2022/09/21 01:15:49;;;;;;;7.25;4.53;;;;;;;18.45;92.99;101633.25;5095035;28;20039;-84
2022/09/21 01:18:23;;;;;;;6.53;5.05;;;;;;;18.38;93.63;101640.03;5094538;28;20028;-84
2022/09/21 01:20:52;;;;;;;5.60;4.75;;;;;;;18.40;93.65;101631.00;5094764;28;20085;-84
2022/09/21 01:23:36;;;;;;;6.50;4.38;;;;;;;18.48;93.24;101640.13;5094747;28;20028;-83
2022/09/21 01:26:41;;;;;;;5.78;4.57;;;;;;;18.51;93.06;101638.06;5094657;28;20024;-84
2022/09/21 01:29:28;;;;;;;4.43;3.80;;;;;;;18.52;93.28;101638.91;5094205;28;20031;-83
2022/09/21 01:32:10;;;;;;;4.60;3.67;;;;;;;18.49;94.18;101632.03;5094525;28;20081;-84
2022/09/21 01:34:42;;;;;;;6.20;4.63;;;;;;;18.49;93.68;101629.38;5094401;28;20028;-83
2022/09/21 01:37:16;;;;;;;5.32;4.00;;;;;;;18.53;93.94;101630.81;5094468;28;20393;-83
2022/09/21 01:39:46;;;;;;;5.55;4.57;;;;;;;18.52;93.96;101631.81;5094363;28;20630;-83
2022/09/21 01:42:14;;;;;;;6.95;4.75;;;;;;;18.46;93.70;101631.44;5094345;28;20071;-83
2022/09/21 01:44:43;;;;;;;6.28;4.03;;;;;;;18.51;93.93;101631.91;5093421;28;20028;-83
2022/09/21 01:47:13;;;;;;;5.72;4.38;;;;;;;18.47;94.16;101631.31;5094156;28;20028;-84
2022/09/21 01:49:47;;;;;;;5.03;3.85;;;;;;;18.50;94.13;101630.22;5094172;28;20059;-84
2022/09/21 01:52:20;;;;;;;5.53;4.55;;;;;;;18.47;93.89;101633.97;5094290;28;20106;-84
2022/09/21 01:54:53;;;;;;;5.45;4.57;;;;;;;18.47;93.93;101628.66;5094114;28;20028;-83
2022/09/21 01:57:58;;;;;;;5.35;4.55;;;;;;;18.50;94.08;101628.38;5093969;28;20052;-84
2022/09/21 02:00:24;;;;;;;4.88;4.22;;;;;;;18.42;93.93;101633.50;5076025;28;20111;-83
2022/09/21 02:02:52;;;;;;;6.38;4.50;;;;;;;18.47;94.36;101630.47;5093938;28;20103;-83
2022/09/21 02:05:20;;;;;;;5.60;4.57;;;;;;;18.40;94.05;101630.13;5093769;28;20036;-83
2022/09/21 02:07:47;;;;;;;5.68;4.22;;;;;;;18.40;94.02;101628.31;5093764;28;20491;-84
2022/09/21 02:10:38;;;;;;;5.88;4.22;;;;;;;18.42;94.00;101625.53;5093780;28;20016;-84
2022/09/21 02:13:05;;;;;;;5.00;3.90;;;;;;;18.41;93.94;101623.84;5082733;28;20042;-84
2022/09/21 02:15:48;;;;;;;6.15;4.50;;;;;;;18.41;94.29;101621.19;5093757;28;20549;-83
2022/09/21 02:18:44;;;;;;;5.05;4.03;;;;;;;18.40;94.11;101616.81;5093540;28;20027;-83
2022/09/21 02:21:22;;;;;;;4.43;4.00;;;;;;;18.39;94.46;101617.81;5093695;28;20024;-84
2022/09/21 02:24:20;;;;;;;4.85;3.80;;;;;;;18.33;95.14;101615.66;5092106;28;20028;-84
2022/09/21 02:27:18;;;;;;;7.95;4.00;;;;;;;18.35;95.05;101619.88;5093681;28;20362;-84
2022/09/21 02:30:12;;;;;;;6.63;3.95;;;;;;;18.34;95.21;101610.19;5086169;28;20040;-84
2022/09/21 02:32:56;;;;;;;6.38;4.10;;;;;;;18.36;95.35;101608.25;5093426;28;20089;-84
2022/09/21 02:35:43;;;;;;;4.43;3.60;;;;;;;18.37;95.34;101612.63;5093050;28;20032;-84
2022/09/21 02:38:25;;;;;;;4.20;3.47;;;;;;;18.28;95.24;101604.53;5093541;28;20028;-84
2022/09/21 02:41:06;;;;;;;5.53;3.83;;;;;;;18.34;94.62;101609.34;5093003;28;20036;-84
2022/09/21 02:43:51;;;;;;;5.00;3.75;;;;;;;18.38;94.79;101600.16;5093377;28;20040;-84
2022/09/21 02:46:42;;;;;;;7.60;4.10;;;;;;;18.38;95.19;101605.47;5093082;28;20085;-84
2022/09/21 02:49:18;;;;;;;4.17;3.70;;;;;;;18.37;95.01;101598.47;5093176;28;20057;-84
2022/09/21 02:51:48;;;;;;;4.07;3.67;;;;;;;18.38;95.22;101594.84;5092937;28;20631;-83
2022/09/21 02:54:17;;;;;;;5.97;4.03;;;;;;;18.34;95.13;101594.25;5108746;28;20113;-85
2022/09/21 02:56:45;;;;;;;4.63;3.83;;;;;;;18.36;95.19;101596.78;5093037;28;20032;-84
2022/09/21 02:59:11;;;;;;;5.95;4.10;;;;;;;18.26;94.87;101591.38;5092735;28;20024;-84
2022/09/21 03:01:39;;;;;;;5.18;3.85;;;;;;;18.32;95.35;101590.84;5091702;28;20489;-84
2022/09/21 03:04:04;;;;;;;5.03;4.00;;;;;;;18.37;95.13;101596.66;5092590;28;20382;-84
2022/09/21 03:06:30;;;;;;;4.70;3.70;;;;;;;18.29;95.99;101592.94;5092560;28;20031;-84
2022/09/21 03:08:57;;;;;;;5.55;3.75;;;;;;;18.30;96.31;101589.31;5092778;28;20012;-84
2022/09/21 03:11:24;;;;;;;4.75;4.25;;;;;;;18.22;97.02;101596.09;5092633;28;20031;-84
2022/09/21 03:13:49;;;;;;;5.93;4.65;;;;;;;18.24;95.84;101583.50;5092489;28;20470;-84
2022/09/21 03:16:15;;;;;;;5.35;3.72;;;;;;;18.47;95.36;101580.78;5091582;28;20039;-84
2022/09/21 03:18:42;;;;;;;4.55;3.45;;;;;;;18.56;94.87;101581.81;5091250;28;20032;-84
2022/09/21 03:21:08;;;;;;;5.43;3.92;;;;;;;18.57;94.38;101573.72;5092539;28;20051;-84
2022/09/21 03:23:33;;;;;;;6.43;3.92;;;;;;;18.55;94.32;101578.34;5091150;28;20116;-84
2022/09/21 03:25:59;;;;;;;5.20;4.18;;;;;;;18.58;94.43;101575.44;5092735;28;20024;-84
2022/09/21 03:28:24;;;;;;;4.95;3.83;;;;;;;18.56;94.54;101574.72;5092503;28;20060;-84
2022/09/21 03:30:51;;;;;;;6.32;4.20;;;;;;;18.56;94.46;101572.06;5091208;28;20363;-84
2022/09/21 03:33:20;;;;;;;4.38;3.45;;;;;;;18.57;95.25;101572.91;5091784;28;20020;-84
2022/09/21 03:35:47;;;;;;;4.43;3.53;;;;;;;18.55;94.65;101570.34;5087108;28;20455;-84
2022/09/21 03:38:13;;;;;;;5.63;3.88;;;;;;;18.51;95.47;101568.94;5091910;28;20035;-84
2022/09/21 03:40:39;;;;;;;5.43;4.10;;;;;;;18.54;95.38;101574.00;5092297;28;20020;-84
2022/09/21 03:43:04;;;;;;;5.00;4.03;;;;;;;18.51;95.01;101563.59;5092278;28;20036;-84
2022/09/21 03:45:29;;;;;;;5.63;4.25;;;;;;;18.55;94.64;101564.19;5091967;28;20115;-84
2022/09/21 03:47:59;;;;;;;5.35;4.50;;;;;;;18.65;94.54;101569.59;5091985;28;20035;-84
2022/09/21 03:50:28;;;;;;;4.68;3.47;;;;;;;18.40;95.90;101571.63;5092026;28;20031;-84
2022/09/21 03:52:54;;;;;;;3.78;2.88;;;;;;;18.34;96.52;101561.50;5092227;28;20024;-84
2022/09/21 03:55:20;;;;;;;6.18;3.45;;;;;;;18.35;96.62;101560.53;5092135;28;20108;-83
2022/09/21 03:57:45;;;;;;;4.35;3.63;;;;;;;18.35;96.63;101563.19;5091849;28;20056;-84
2022/09/21 04:00:12;;;;;;;4.05;3.50;;;;;;;18.34;96.94;101556.19;5091929;28;20039;-84
2022/09/21 04:02:41;;;;;;;5.43;3.47;;;;;;;18.31;96.82;101551.97;5091981;28;20028;-84
2022/09/21 04:05:13;;;;;;;4.53;3.67;;;;;;;18.33;97.30;101549.19;5091537;28;20028;-84
2022/09/21 04:07:39;;;;;;;4.80;3.88;;;;;;;18.31;97.34;101553.78;5091255;28;20107;-84
2022/09/21 04:10:07;;;;;;;6.47;4.10;;;;;;;18.30;97.57;101554.75;5091897;28;20016;-84
2022/09/21 04:12:33;;;;;;;4.43;4.03;;;;;;;18.20;97.56;101550.19;5091762;28;20028;-83
2022/09/21 04:15:00;;;;;;;9.80;4.45;;;;;;;18.26;97.37;101548.00;5091825;28;20065;-84
2022/09/21 04:17:26;;;;;;;5.63;4.00;;;;;;;18.28;97.00;101548.72;5091667;28;20462;-84
2022/09/21 04:19:51;;;;;;;5.32;4.18;;;;;;;18.23;97.54;101544.63;5091914;28;20017;-84
2022/09/21 04:22:17;;;;;;;7.40;4.88;;;;;;;18.20;97.06;101550.19;5091573;28;20028;-84
2022/09/21 04:24:43;;;;;;;5.50;4.32;;;;;;;18.21;97.26;101548.38;5091906;28;20032;-84
2022/09/21 04:27:10;;;;;;;5.07;3.83;;;;;;;18.18;96.63;101548.63;5091528;28;20410;-84
2022/09/21 04:29:37;;;;;;;5.78;3.88;;;;;;;18.16;97.16;101554.06;5091354;28;20382;-84
2022/09/21 04:32:03;;;;;;;4.93;3.83;;;;;;;18.13;97.68;101554.31;5091443;28;20052;-84
2022/09/21 04:34:30;;;;;;;3.45;3.10;;;;;;;18.09;97.56;101555.53;5091628;28;20051;-84
2022/09/21 04:36:55;;;;;;;4.78;3.50;;;;;;;17.99;98.44;101546.59;5091679;28;20020;-84
2022/09/21 04:39:22;;;;;;;4.20;3.58;;;;;;;17.95;97.61;101546.03;5091462;28;20443;-84
2022/09/21 04:41:47;;;;;;;4.18;3.50;;;;;;;17.86;97.80;101548.59;5091598;28;20065;-84
2022/09/21 04:44:13;;;;;;;3.95;3.55;;;;;;;17.67;98.39;101552.69;5091604;28;20028;-84
2022/09/21 04:46:38;;;;;;;7.32;5.03;;;;;;;17.52;98.62;101546.78;5091575;28;20514;-84
2022/09/21 04:49:03;;;;;;;5.65;4.18;;;;;;;17.39;98.35;101543.41;5091273;28;20027;-84
2022/09/21 04:51:29;;;;;;;5.95;4.70;;;;;;;17.26;98.47;101538.22;5091614;28;20025;-84
2022/09/21 04:53:54;;;;;;;7.30;4.35;;;;;;;17.12;97.86;101544.63;5091429;28;20508;-84
2022/09/21 04:56:19;;;;;;;5.50;4.80;;;;;;;16.93;98.36;101553.13;5091536;28;20466;-84
2022/09/21 04:58:45;;;;;;;5.18;4.65;;;;;;;16.81;98.17;101554.06;5091306;28;20028;-84
2022/09/21 05:01:10;;;;;;;5.30;4.40;;;;;;;16.65;98.23;101555.22;5091273;28;20477;-84
2022/09/21 05:03:36;;;;;;;5.32;4.40;;;;;;;16.54;100.00;101557.81;5091340;28;20024;-84
2022/09/21 05:06:01;;;;;;;6.63;4.43;;;;;;;16.55;99.26;101559.50;5092114;28;20028;-83
2022/09/21 05:11:17;;;;;;;4.55;3.38;;;;;;;16.20;100.00;101565.63;5092379;28;20493;-84
2022/09/21 05:13:43;;;;;;;9.38;6.32;;;;;;;15.99;100.00;101562.72;5092102;28;20024;-84
2022/09/21 05:16:09;;;;;;;11.48;7.88;;;;;;;15.67;100.00;101573.78;5092008;28;20338;-84
2022/09/21 05:18:35;;;;;;;9.02;6.70;;;;;;;15.66;100.00;101577.41;5092179;28;20222;-85
2022/09/21 05:21:02;;;;;;;7.40;5.55;;;;;;;15.81;100.00;101570.19;5095119;28;20493;-84
2022/09/21 05:23:29;;;;;;;6.40;5.57;;;;;;;15.84;97.85;101574.44;5095446;28;20027;-84
2022/09/21 05:25:56;;;;;;;7.47;5.30;;;;;;;15.83;99.13;101573.56;5095858;28;20048;-84
2022/09/21 05:28:22;;;;;;;9.07;6.53;;;;;;;15.63;98.19;101571.47;5095671;28;20421;-84
2022/09/21 05:31:02;;;;;;;11.10;6.40;;;;;;;15.58;99.50;101570.94;5095307;28;20052;-84
2022/09/21 05:33:29;;;;;;;10.13;7.00;;;;;;;15.30;100.00;101570.22;5095890;28;20150;-84
2022/09/21 05:36:10;;;;;;;8.73;6.45;;;;;;;15.71;100.00;101579.72;5095822;28;20107;-84
2022/09/21 05:38:36;;;;;;;8.00;6.22;;;;;;;15.74;99.66;101578.66;5100254;28;20024;-87
2022/09/21 05:41:02;;;;;;;11.50;9.18;;;;;;;15.58;100.00;101584.19;5111098;28;20048;-88
2022/09/21 05:43:28;;;;;;;14.30;8.80;;;;;;;15.45;100.00;101587.69;5111832;28;20083;-88
2022/09/21 05:46:04;;;;;;;10.82;7.60;;;;;;;15.61;99.68;101578.69;5110540;28;20032;-88
2022/09/21 05:48:39;;;;;;;8.43;7.05;;;;;;;15.50;98.86;101591.81;5111031;28;20020;-91
2022/09/21 05:51:31;;;;;;;10.18;6.82;;;;;;;15.51;100.00;101593.53;5102894;28;20085;-91
2022/09/21 05:54:34;;;;;;;8.73;6.20;;;;;;;15.62;100.00;101586.53;5093349;28;20055;-89
2022/09/21 05:57:11;;;;;;;10.13;6.72;;;;;;;15.68;100.00;101585.25;5086280;28;20035;-88
2022/09/21 06:00:01;;;;;;;9.23;6.68;;;;;;;15.86;100.00;101583.13;5095683;28;20030;-88
2022/09/21 06:02:32;;;;;;;7.43;6.57;;;;;;;15.96;99.96;101588.59;5094798;28;20042;-89
2022/09/21 06:05:00;;;;;;;8.47;6.20;;;;;;;16.07;100.00;101591.31;5094842;28;20058;-89
2022/09/21 06:07:25;;;;;;;12.88;8.02;;;;;;;16.00;100.00;101595.38;5095121;28;20020;-89
2022/09/21 06:09:51;;;;;;;9.98;7.82;;;;;;;16.05;100.00;101587.91;5094953;28;20039;-89
2022/09/21 06:12:16;;;;;;;10.52;7.80;;;;;;;16.23;100.00;101597.19;5095026;28;20020;-88
2022/09/21 06:14:43;;;;;;;13.98;7.68;;;;;;;16.28;100.00;101588.91;5095129;28;20024;-87
2022/09/21 06:17:08;;;;;;;11.65;8.38;;;;;;;16.32;100.00;101594.84;5094367;28;20039;-85
2022/09/21 06:19:34;;;;;;;9.10;7.68;;;;;;;16.52;99.58;101596.84;5093815;28;20028;-86
2022/09/21 06:21:59;;;;;;;8.68;6.63;;;;;;;16.72;99.70;101578.59;5094459;28;20040;-86
2022/09/21 06:24:24;;;;;;;8.30;6.22;;;;;;;16.91;100.00;101592.19;5092901;28;20420;-86
2022/09/21 06:26:50;;;;;;;10.25;7.43;;;;;;;17.09;98.96;101597.06;5093395;28;20024;-86
2022/09/21 06:29:16;;;;;;;7.75;6.80;;;;;;;17.08;99.37;101592.72;5094033;28;20066;-87
2022/09/21 06:31:41;;;;;;;8.40;6.25;;;;;;;17.30;99.55;101590.13;5092690;28;20073;-85
2022/09/21 06:34:07;;;;;;;9.35;7.05;;;;;;;17.53;98.56;101587.47;5094237;28;20032;-86
2022/09/21 06:36:32;;;;;;;8.18;6.60;;;;;;;17.76;97.33;101591.78;5093786;28;20063;-87
2022/09/21 06:38:57;;;;;;;10.68;6.95;;;;;;;17.90;97.76;101597.84;5093202;28;20020;-87
2022/09/21 06:41:23;;;;;;;8.18;6.20;;;;;;;18.00;95.08;101589.00;5092563;28;20050;-86
2022/09/21 06:43:52;;;;;;;8.48;6.45;;;;;;;18.09;96.39;101587.44;5092477;28;20024;-87
2022/09/21 06:46:17;;;;;;;7.90;6.65;;;;;;;18.15;95.50;101592.25;5093017;28;20039;-88
2022/09/21 06:48:42;;;;;;;8.27;6.65;;;;;;;18.22;94.09;101593.44;5092177;28;20385;-88
2022/09/21 06:51:08;;;;;;;7.75;5.70;;;;;;;18.34;94.61;101596.91;5092702;28;20020;-87
2022/09/21 06:53:34;;;;;;;8.40;6.15;;;;;;;18.40;92.93;101596.41;5091669;28;20028;-87
2022/09/21 06:56:04;;;;;;;8.48;5.38;;;;;;;18.45;92.46;101600.50;5092536;28;20047;-88
2022/09/21 06:58:31;;;;;;;6.63;5.55;;;;;;;18.55;91.51;101599.63;5091907;28;20028;-88
2022/09/21 07:00:56;;;;;;;8.07;5.43;;;;;;;18.60;89.61;101600.09;5092582;28;20478;-88
2022/09/21 07:03:21;;;;;;;8.35;5.63;;;;;;;18.75;90.91;101597.94;5092418;28;20112;-88
2022/09/21 07:05:48;;;;;;;8.75;6.07;;;;;;;18.86;89.44;101599.75;5092710;28;20032;-89
2022/09/21 07:08:13;;;;;;;8.43;5.97;;;;;;;18.81;90.03;101596.63;5091211;28;20463;-86
2022/09/21 07:10:39;;;;;;;8.05;6.45;;;;;;;18.93;88.69;101595.59;5091403;28;20050;-88
2022/09/21 07:13:05;;;;;;;9.35;5.80;;;;;;;18.87;89.21;101596.09;5090893;28;20303;-87
2022/09/21 07:15:31;;;;;;;7.13;6.15;;;;;;;18.96;89.33;101590.00;5091988;28;20024;-87
2022/09/21 07:17:57;;;;;;;7.30;6.10;;;;;;;19.24;88.25;101597.47;5091830;28;20095;-87
2022/09/21 07:20:22;;;;;;;9.55;6.80;;;;;;;19.44;87.79;101598.41;5091423;28;20111;-87
2022/09/21 07:22:48;;;;;;;9.43;7.47;;;;;;;19.69;86.69;101602.41;5091526;28;20024;-86
2022/09/21 07:25:14;;;;;;;9.35;7.40;;;;;;;19.85;84.82;101601.97;5095538;28;20062;-87
2022/09/21 07:27:39;;;;;;;11.30;6.70;;;;;;;19.99;85.17;101598.91;5092896;28;20036;-86
2022/09/21 07:30:06;;;;;;;9.82;7.28;;;;;;;20.08;84.47;101607.91;5091653;28;20020;-86
2022/09/21 07:32:31;;;;;;;9.07;7.22;;;;;;;21.15;80.20;101602.63;5092147;28;20032;-86
2022/09/21 07:34:57;;;;;;;10.25;7.05;;;;;;;20.91;78.67;101590.56;5092604;28;20041;-86
2022/09/21 07:37:23;;;;;;;8.30;7.13;;;;;;;20.42;79.62;101595.06;5092417;28;20024;-86
2022/09/21 07:39:49;;;;;;;8.88;7.00;;;;;;;20.34;81.38;101597.56;5093324;28;20024;-86
2022/09/21 07:42:16;;;;;;;10.20;6.80;;;;;;;20.67;79.53;101600.84;5091661;28;20051;-86
2022/09/21 07:44:42;;;;;;;12.07;6.28;;;;;;;21.39;75.64;101597.59;5092564;28;20105;-86
2022/09/21 07:47:07;;;;;;;9.18;7.00;;;;;;;21.41;74.94;101600.13;5092611;28;20035;-86
2022/09/21 07:49:32;;;;;;;10.93;6.80;;;;;;;23.09;67.49;101595.22;5092495;28;20031;-86
2022/09/21 07:51:57;;;;;;;13.38;6.45;;;;;;;23.58;63.08;101599.16;5091145;28;20031;-86
2022/09/21 07:54:23;;;;;;;9.63;6.55;;;;;;;23.92;61.99;101591.97;5092664;28;20050;-86
2022/09/21 07:59:34;;;;;;;8.05;5.60;;;;;;;33.77;36.06;101579.34;5050517;28;20039;-85
2022/09/21 08:01:59;;;;;;;;;;;;;;;35.71;32.54;101582.31;5092578;28;19966;-86
2022/09/21 08:04:24;;;;;;;;;;;;;;;38.05;29.52;101577.75;5092057;28;20322;-86
2022/09/21 08:06:49;;;;;;;;;;;;;;;39.37;26.89;101573.44;5092468;28;20255;-86
2022/09/21 08:09:15;;;;;;;;;;;;;;;40.77;25.29;101565.03;5092177;28;19912;-86
2022/09/21 08:11:43;;;;;;;;;;;;;;;41.25;23.43;101572.88;5090734;28;20111;-86
2022/09/21 08:14:08;;;;;;;;;;;;;;;42.41;22.98;101566.00;5091774;28;19998;-87
2022/09/21 08:16:33;;;;;;;;;;;;;;;43.22;22.03;101560.69;5092496;28;20428;-86
2022/09/21 08:18:59;;;;;;;;;;;;;;;44.42;21.73;101553.03;5092749;28;19916;-86
2022/09/21 08:21:24;;;;;;;;;;;;;;;44.99;20.88;101553.56;5092699;28;20369;-86
2022/09/21 08:23:49;;;;;;;;;;;;;;;46.16;19.14;101551.13;5091081;28;20354;-86
2022/09/21 08:26:20;;;;;;;;;;;;;;;46.53;18.88;101547.09;5092737;28;20328;-87
2022/09/21 08:28:48;;;;;;;;;;;;;;;45.74;18.93;101547.72;5091055;28;19912;-87
2022/09/21 08:31:15;;;;;;;;;;;;;;;44.72;20.04;101546.88;5092598;28;19912;-87
2022/09/21 08:33:40;;;;;;;;;;;;;;;44.70;19.86;101546.38;5092208;28;19912;-87
2022/09/21 08:36:06;;;;;;;;;;;;;;;45.48;19.15;101540.00;5092305;28;19919;-88
2022/09/21 08:38:32;;;;;;;;;;;;;;;44.87;19.58;101523.63;5092620;28;20289;-86
2022/09/21 08:40:59;;;;;;;;;;;;;;;44.98;19.96;101520.63;5092465;28;19961;-87
2022/09/21 08:43:34;;;;;;;;;;;;;;;45.62;19.57;101521.38;5092333;28;19922;-87
2022/09/21 08:46:02;;;;;;;;;;;;;;;44.66;19.66;101514.06;5090780;28;20377;-87
2022/09/21 08:48:30;;;;;;;;;;;;;;;48.27;17.82;101512.91;5092715;28;19912;-87
2022/09/21 08:50:58;;;;;;;;;;;;;;;46.36;18.24;101508.91;5092598;28;19912;-87
2022/09/21 08:53:23;;;;;;;;;;;;;;;48.09;17.11;101516.91;5093170;28;19999;-87
2022/09/21 08:55:49;;;;;;;;;;;;;;;47.31;17.24;101513.09;5096402;28;20004;-87
2022/09/21 08:58:22;;;;;;;;;;;;;;;47.50;17.12;101512.75;5094601;28;19911;-87
2022/09/21 09:00:49;;;;;;;;;;;;;;;48.57;16.75;101522.13;5096005;28;19926;-87
2022/09/21 09:03:14;;;;;;;;;;;;;;;46.85;17.21;101525.63;5096039;28;19919;-87
2022/09/21 09:05:46;;;;;;;;;;;;;;;47.21;17.59;101519.78;5095758;28;19912;-87
2022/09/21 09:08:23;;;;;;;;;;;;;;;47.39;17.89;101528.13;5094222;28;19916;-86
2022/09/21 09:11:03;;;;;;;;;;;;;;;48.55;16.26;101527.22;5095884;28;19919;-87
2022/09/21 09:13:40;;;;;;;;;;;;;;;49.03;16.02;101548.25;5096153;28;19942;-86
2022/09/21 09:16:15;;;;;;;;;;;;;;;50.07;15.39;101547.69;5094645;28;20366;-86
2022/09/21 09:18:43;;;;;;;;;;;;;;;48.83;15.83;101552.63;5095526;28;19912;-87
2022/09/21 09:21:11;;;;;;;;;;;;;;;48.90;15.84;101551.28;5094454;28;19912;-87
2022/09/21 09:23:39;;;;;;;;;;;;;;;50.13;15.24;101540.72;5095970;28;19966;-87
2022/09/21 09:26:17;;;;;;;;;;;;;;;50.20;15.08;101539.00;5093976;28;19918;-87
2022/09/21 09:28:42;;;;;;;;;;;;;;;48.95;14.52;101537.16;5095135;28;19919;-86
2022/09/21 09:31:19;;;;;;;;;;;;;;;48.24;15.76;101539.44;5095178;28;19912;-86
2022/09/21 09:33:55;;;;;;;;;;;;;;;46.66;17.00;101539.75;5094928;28;19916;-86
2022/09/21 09:36:22;;;;;;;;;;;;;;;44.53;18.26;101544.25;5094961;28;19912;-86
2022/09/21 09:38:57;;;;;;;;;;;;;;;42.88;19.39;101545.09;5095026;28;19912;-86
2022/09/21 09:41:23;;;;;;;;;;;;;;;45.43;17.75;101542.91;5094804;28;19934;-86
2022/09/21 09:43:55;;;;;;;;;;;;;;;46.49;16.39;101546.06;5093479;28;19912;-86
2022/09/21 09:46:30;;;;;;;;;;;;;;;42.89;18.97;101541.19;5094705;28;19912;-86
2022/09/21 09:49:01;;;;;;;;;;;;;;;38.35;21.52;101539.91;5094694;28;19919;-86
2022/09/21 09:51:26;;;;;;;;;;;;;;;36.62;24.30;101545.88;5094861;28;19912;-85
2022/09/21 09:53:57;;;;;;;;;;;;;;;35.44;25.39;101547.34;5094744;28;19987;-86
2022/09/21 09:56:22;;;;;;;;;;;;;;;34.43;26.65;101544.00;5094799;28;19912;-85
2022/09/21 09:59:06;;;;;;;;;;;;;;;32.89;27.38;101551.44;5093272;28;19919;-85
2022/09/21 10:01:40;;;;;;;;;;;;;;;31.69;27.51;101551.47;5093453;28;19912;-85
2022/09/21 10:04:16;;;;;;;;;;;;;;;29.05;30.31;101545.41;5094500;28;19919;-85
2022/09/21 10:06:42;;;;;;;;;;;;;;;29.62;31.37;101546.97;5093931;28;20435;-85
2022/09/21 10:09:17;;;;;;;;;;;;;;;28.87;32.83;101544.06;5094282;28;19908;-85
2022/09/21 10:11:42;;;;;;;;;;;;;;;27.81;33.71;101551.97;5094260;28;19912;-85
2022/09/21 10:14:09;;;;;;;;;;;;;;;27.86;34.80;101552.25;5093234;28;20364;-85
2022/09/21 10:16:39;;;;;;;;;;;;;;;27.13;36.75;101551.28;5094396;28;19919;-85
2022/09/21 10:19:04;;;;;;;;;;;;;;;26.77;38.21;101551.16;5094393;28;19915;-85
2022/09/21 10:21:34;;;;;;;3.00;1.58;;;;;;;26.09;39.08;101543.78;5092594;28;19912;-85
2022/09/21 10:24:03;;;;;;;1.98;1.52;;;;;;;25.87;38.95;101552.63;5093450;28;20027;-85
2022/09/21 10:26:44;;;;;;;1.88;1.50;;;;;;;25.51;40.67;101539.69;5093355;28;20028;-85
2022/09/21 10:29:29;;;;;;;2.78;1.40;;;;;;;25.94;40.60;101545.56;5093583;28;20489;-85
2022/09/21 10:32:01;;;;;;;1.30;1.17;;;;;;;26.45;40.35;101547.72;5093558;28;20066;-85
2022/09/21 10:34:30;;;;;;;;;;;;;;;26.31;40.14;101538.56;5092482;28;20035;-85
2022/09/21 10:36:58;;;;;;;2.13;1.50;;;;;;;26.56;40.14;101543.72;5093438;28;19919;-85
2022/09/21 10:39:30;;;;;;;2.17;1.38;;;;;;;26.96;39.01;101541.72;5093209;28;20031;-85
2022/09/21 10:42:10;;;;;;;1.73;1.40;;;;;;;27.15;38.37;101538.44;5091921;28;20512;-85
2022/09/21 10:44:46;;;;;;;1.27;1.17;;;;;;;26.76;38.50;101534.16;5093084;28;20402;-85
2022/09/21 10:47:20;;;;;;;4.85;1.55;;;;;;;27.25;36.52;101539.06;5093036;28;20123;-85
2022/09/21 10:49:57;;;;;;;1.65;1.45;;;;;;;29.18;34.01;101534.69;5092033;28;20069;-85
2022/09/21 10:52:55;;;;;;;1.92;1.60;;;;;;;30.05;32.17;101526.88;5093185;28;20024;-85
2022/09/21 10:55:22;;;;;;;2.65;1.38;;;;;;;30.56;33.06;101529.00;5077189;28;20478;-85
2022/09/21 10:57:50;;;;;;;2.55;1.30;;;;;;;31.10;30.85;101518.91;5092989;28;20028;-85
2022/09/21 11:00:24;;;;;;;2.85;1.55;;;;;;;32.72;29.54;101517.72;5092997;28;20429;-85
2022/09/21 11:02:50;;;;;;;1.15;1.02;;;;;;;31.74;30.43;101513.66;5092881;28;20042;-85
2022/09/21 11:05:36;;;;;;;1.73;1.25;;;;;;;31.52;30.63;101516.69;5092902;28;20036;-85
2022/09/21 11:08:20;;;;;;;2.70;1.30;;;;;;;31.41;31.10;101511.91;5092633;28;20106;-85
2022/09/21 11:10:46;;;;;;;;;;;;;;;30.51;32.00;101512.56;5092143;28;19926;-85
2022/09/21 11:13:19;;;;;;;;;;;;;;;29.92;32.29;101505.19;5092000;28;19916;-85
2022/09/21 11:15:55;;;;;;;2.60;1.35;;;;;;;28.98;34.72;101503.97;5093364;28;19911;-85
2022/09/21 11:18:39;;;;;;;1.52;1.33;;;;;;;29.39;33.98;101508.56;5091283;28;20430;-85
2022/09/21 11:21:33;;;;;;;3.25;1.35;;;;;;;32.44;30.38;101499.16;5092469;28;20512;-85
2022/09/21 11:23:58;;;;;;;;;;;;;;;32.41;29.47;101495.81;5092974;28;20377;-85
2022/09/21 11:26:23;;;;;;;;;;;;;;;30.71;30.34;101487.28;5093085;28;19971;-86
2022/09/21 11:28:52;;;;;;;;;;;;;;;30.92;30.91;101486.22;5092706;28;19929;-85
2022/09/21 11:31:34;;;;;;;1.40;1.17;;;;;;;29.64;31.30;101484.50;5092228;28;19919;-85
2022/09/21 11:34:02;;;;;;;;;;;;;;;32.65;28.32;101490.59;5092450;28;20039;-85
2022/09/21 11:36:42;;;;;;;;;;;;;;;33.21;26.93;101475.13;5092791;28;19912;-85
2022/09/21 11:39:16;;;;;;;;;;;;;;;31.88;29.23;101482.66;5092414;28;19912;-85
2022/09/21 11:41:48;;;;;;;;;;;;;;;30.77;29.66;101472.91;5092484;28;20360;-85
2022/09/21 11:44:16;;;;;;;;;;;;;;;31.60;27.62;101470.28;5092598;28;19912;-85
2022/09/21 11:47:03;;;;;;;;;;;;;;;31.15;27.72;101481.13;5092756;28;19973;-85
2022/09/21 11:49:47;;;;;;;;;;;;;;;32.36;27.17;101465.75;5070612;28;19920;-85
2022/09/21 11:52:21;;;;;;;;;;;;;;;31.41;27.74;101463.88;5092477;28;19912;-85
2022/09/21 11:54:52;;;;;;;;;;;;;;;33.23;26.52;101470.28;5092887;28;19995;-86
2022/09/21 11:57:36;;;;;;;;;;;;;;;34.29;24.82;101456.16;5092632;28;19919;-85
2022/09/21 12:00:14;;;;;;;;;;;;;;;35.87;24.69;101458.53;5091197;28;19927;-86
2022/09/21 12:02:54;;;;;;;;;;;;;;;35.54;24.37;101451.13;5090197;28;20044;-86